sensor_id;sensor_type;location;lat;lon;timestamp;pressure;altitude;pressure_sealevel;temperature;humidity
13705;BME280;6924;52.122;9.952;2023-01-30T00:00:28;100475.13;;;1.32;100.00
13705;BME280;6924;52.122;9.952;2023-01-30T00:02:54;100484.06;;;1.34;100.00
13705;BME280;6924;52.122;9.952;2023-01-30T00:05:21;100483.88;;;1.40;100.00
13705;BME280;6924;52.122;9.952;2023-01-30T00:07:47;100473.31;;;1.42;100.00
13705;BME280;6924;52.122;9.952;2023-01-30T00:10:16;100430.75;;;1.47;100.00
13705;BME280;6924;52.122;9.952;2023-01-30T00:12:42;100417.91;;;1.46;100.00
13705;BME280;6924;52.122;9.952;2023-01-30T00:15:09;100410.97;;;1.49;100.00
13705;BME280;6924;52.122;9.952;2023-01-30T00:17:35;100393.13;;;1.50;100.00
13705;BME280;6924;52.122;9.952;2023-01-30T00:20:02;100356.91;;;1.50;100.00
13705;BME280;6924;52.122;9.952;2023-01-30T00:22:29;100359.78;;;1.55;100.00
13705;BME280;6924;52.122;9.952;2023-01-30T00:24:55;100350.03;;;1.57;100.00
13705;BME280;6924;52.122;9.952;2023-01-30T00:27:23;100348.09;;;1.58;100.00
13705;BME280;6924;52.122;9.952;2023-01-30T00:29:49;100349.50;;;1.60;100.00
13705;BME280;6924;52.122;9.952;2023-01-30T00:32:15;100352.88;;;1.62;100.00
13705;BME280;6924;52.122;9.952;2023-01-30T00:34:42;100361.56;;;1.66;100.00
13705;BME280;6924;52.122;9.952;2023-01-30T00:37:08;100385.84;;;1.65;100.00
13705;BME280;6924;52.122;9.952;2023-01-30T00:39:35;100399.25;;;1.69;100.00
13705;BME280;6924;52.122;9.952;2023-01-30T00:42:01;100404.88;;;1.74;100.00
13705;BME280;6924;52.122;9.952;2023-01-30T00:44:46;100400.22;;;1.79;100.00
13705;BME280;6924;52.122;9.952;2023-01-30T00:47:30;100396.63;;;1.84;100.00
13705;BME280;6924;52.122;9.952;2023-01-30T00:49:57;100390.84;;;1.91;100.00
13705;BME280;6924;52.122;9.952;2023-01-30T00:52:23;100385.53;;;1.89;100.00
13705;BME280;6924;52.122;9.952;2023-01-30T00:54:49;100373.88;;;1.92;100.00
13705;BME280;6924;52.122;9.952;2023-01-30T00:57:16;100352.34;;;1.88;100.00
13705;BME280;6924;52.122;9.952;2023-01-30T00:59:43;100336.16;;;1.90;100.00
13705;BME280;6924;52.122;9.952;2023-01-30T01:02:10;100328.94;;;1.94;100.00
13705;BME280;6924;52.122;9.952;2023-01-30T01:04:37;100318.09;;;1.92;100.00
13705;BME280;6924;52.122;9.952;2023-01-30T01:07:07;100292.41;;;1.90;100.00
13705;BME280;6924;52.122;9.952;2023-01-30T01:09:33;100294.97;;;1.97;100.00
13705;BME280;6924;52.122;9.952;2023-01-30T01:12:00;100311.13;;;1.95;100.00
13705;BME280;6924;52.122;9.952;2023-01-30T01:14:26;100298.34;;;1.99;100.00
13705;BME280;6924;52.122;9.952;2023-01-30T01:16:53;100322.56;;;1.98;100.00
13705;BME280;6924;52.122;9.952;2023-01-30T01:19:20;100323.44;;;1.99;100.00
13705;BME280;6924;52.122;9.952;2023-01-30T01:21:47;100322.06;;;2.01;100.00
13705;BME280;6924;52.122;9.952;2023-01-30T01:24:14;100302.22;;;1.98;100.00
13705;BME280;6924;52.122;9.952;2023-01-30T01:26:41;100278.81;;;1.99;100.00
13705;BME280;6924;52.122;9.952;2023-01-30T01:29:10;100286.38;;;2.03;100.00
13705;BME280;6924;52.122;9.952;2023-01-30T01:31:37;100276.31;;;2.02;100.00
13705;BME280;6924;52.122;9.952;2023-01-30T01:34:04;100274.09;;;2.04;100.00
13705;BME280;6924;52.122;9.952;2023-01-30T01:36:31;100271.31;;;2.04;100.00
13705;BME280;6924;52.122;9.952;2023-01-30T01:38:58;100254.56;;;2.04;100.00
13705;BME280;6924;52.122;9.952;2023-01-30T01:41:24;100240.38;;;2.06;100.00
13705;BME280;6924;52.122;9.952;2023-01-30T01:43:59;100244.81;;;2.07;100.00
13705;BME280;6924;52.122;9.952;2023-01-30T01:46:28;100244.56;;;2.09;100.00
13705;BME280;6924;52.122;9.952;2023-01-30T01:48:57;100227.56;;;2.10;100.00
13705;BME280;6924;52.122;9.952;2023-01-30T01:51:27;100218.38;;;2.10;100.00
13705;BME280;6924;52.122;9.952;2023-01-30T01:53:59;100224.22;;;2.13;100.00
13705;BME280;6924;52.122;9.952;2023-01-30T01:56:28;100212.78;;;2.10;100.00
13705;BME280;6924;52.122;9.952;2023-01-30T01:59:00;100205.53;;;2.14;100.00
13705;BME280;6924;52.122;9.952;2023-01-30T02:01:30;100200.50;;;2.11;100.00
13705;BME280;6924;52.122;9.952;2023-01-30T02:03:59;100172.84;;;2.09;100.00
13705;BME280;6924;52.122;9.952;2023-01-30T02:06:29;100168.97;;;2.10;100.00
13705;BME280;6924;52.122;9.952;2023-01-30T02:08:59;100171.47;;;2.12;100.00
13705;BME280;6924;52.122;9.952;2023-01-30T02:11:30;100174.56;;;2.10;100.00
13705;BME280;6924;52.122;9.952;2023-01-30T02:13:58;100187.69;;;2.10;100.00
13705;BME280;6924;52.122;9.952;2023-01-30T02:16:25;100172.34;;;2.12;100.00
13705;BME280;6924;52.122;9.952;2023-01-30T02:18:52;100182.44;;;2.18;100.00
13705;BME280;6924;52.122;9.952;2023-01-30T02:24:49;100173.28;;;2.28;100.00
13705;BME280;6924;52.122;9.952;2023-01-30T02:27:32;100173.28;;;2.28;100.00
13705;BME280;6924;52.122;9.952;2023-01-30T02:30:21;100170.19;;;2.24;
13705;BME280;6924;52.122;9.952;2023-01-30T02:33:03;100149.53;;;2.25;100.00
13705;BME280;6924;52.122;9.952;2023-01-30T02:35:40;100158.75;;;2.26;100.00
13705;BME280;6924;52.122;9.952;2023-01-30T02:38:18;100153.19;;;2.31;100.00
13705;BME280;6924;52.122;9.952;2023-01-30T02:40:55;100140.63;;;2.34;100.00
13705;BME280;6924;52.122;9.952;2023-01-30T02:43:29;100142.06;;;2.36;100.00
13705;BME280;6924;52.122;9.952;2023-01-30T02:46:01;100125.34;;;2.41;100.00
13705;BME280;6924;52.122;9.952;2023-01-30T02:48:37;100108.03;;;2.44;100.00
13705;BME280;6924;52.122;9.952;2023-01-30T02:51:10;100093.81;;;2.46;100.00
13705;BME280;6924;52.122;9.952;2023-01-30T02:53:37;100082.09;;;2.49;100.00
13705;BME280;6924;52.122;9.952;2023-01-30T02:56:05;100086.88;;;2.54;100.00
13705;BME280;6924;52.122;9.952;2023-01-30T02:58:33;100082.69;;;2.56;100.00
13705;BME280;6924;52.122;9.952;2023-01-30T03:01:25;100074.59;;;2.60;100.00
13705;BME280;6924;52.122;9.952;2023-01-30T03:04:15;100068.75;;;2.66;100.00
13705;BME280;6924;52.122;9.952;2023-01-30T03:07:01;100047.53;;;2.71;100.00
13705;BME280;6924;52.122;9.952;2023-01-30T03:09:42;100030.78;;;2.71;100.00
13705;BME280;6924;52.122;9.952;2023-01-30T03:12:12;100031.09;;;2.69;100.00
13705;BME280;6924;52.122;9.952;2023-01-30T03:14:46;100029.41;;;2.68;100.00
13705;BME280;6924;52.122;9.952;2023-01-30T03:17:16;100031.34;;;2.67;100.00
13705;BME280;6924;52.122;9.952;2023-01-30T03:19:45;100037.78;;;2.73;100.00
13705;BME280;6924;52.122;9.952;2023-01-30T03:22:12;100041.13;;;2.75;100.00
13705;BME280;6924;52.122;9.952;2023-01-30T03:24:38;100060.97;;;2.79;100.00
13705;BME280;6924;52.122;9.952;2023-01-30T03:27:09;100059.03;;;2.79;100.00
13705;BME280;6924;52.122;9.952;2023-01-30T03:29:36;100059.59;;;2.76;100.00
13705;BME280;6924;52.122;9.952;2023-01-30T03:32:03;100038.06;;;2.77;100.00
13705;BME280;6924;52.122;9.952;2023-01-30T03:34:30;100057.94;;;2.80;100.00
13705;BME280;6924;52.122;9.952;2023-01-30T03:36:57;100047.84;;;2.79;100.00
13705;BME280;6924;52.122;9.952;2023-01-30T03:39:25;100052.88;;;2.77;100.00
13705;BME280;6924;52.122;9.952;2023-01-30T03:41:52;100056.22;;;2.84;100.00
13705;BME280;6924;52.122;9.952;2023-01-30T03:44:19;100037.53;;;2.85;100.00
13705;BME280;6924;52.122;9.952;2023-01-30T03:46:45;100048.16;;;2.83;100.00
13705;BME280;6924;52.122;9.952;2023-01-30T03:49:12;100024.41;;;2.80;100.00
13705;BME280;6924;52.122;9.952;2023-01-30T03:51:38;100026.34;;;2.80;100.00
13705;BME280;6924;52.122;9.952;2023-01-30T03:54:06;100023.84;;;2.78;100.00
13705;BME280;6924;52.122;9.952;2023-01-30T03:56:32;100022.97;;;2.78;100.00
13705;BME280;6924;52.122;9.952;2023-01-30T03:58:59;100022.16;;;2.77;100.00
13705;BME280;6924;52.122;9.952;2023-01-30T04:01:25;100027.16;;;2.75;100.00
13705;BME280;6924;52.122;9.952;2023-01-30T04:03:51;100015.44;;;2.73;100.00
13705;BME280;6924;52.122;9.952;2023-01-30T04:06:18;100016.28;;;2.74;100.00
13705;BME280;6924;52.122;9.952;2023-01-30T04:08:44;100016.84;;;2.76;100.00
13705;BME280;6924;52.122;9.952;2023-01-30T04:11:12;100011.53;;;2.74;100.00
13705;BME280;6924;52.122;9.952;2023-01-30T04:13:38;100018.78;;;2.75;100.00
13705;BME280;6924;52.122;9.952;2023-01-30T04:16:16;100007.06;;;2.73;100.00
13705;BME280;6924;52.122;9.952;2023-01-30T04:18:43;99996.44;;;2.75;100.00
13705;BME280;6924;52.122;9.952;2023-01-30T04:21:10;99992.56;;;2.76;100.00
13705;BME280;6924;52.122;9.952;2023-01-30T04:23:37;99991.72;;;2.81;100.00
13705;BME280;6924;52.122;9.952;2023-01-30T04:26:04;99988.94;;;2.81;100.00
13705;BME280;6924;52.122;9.952;2023-01-30T04:28:32;99985.56;;;2.84;100.00
13705;BME280;6924;52.122;9.952;2023-01-30T04:30:59;99973.84;;;2.87;100.00
13705;BME280;6924;52.122;9.952;2023-01-30T04:33:26;99975.22;;;2.84;100.00
13705;BME280;6924;52.122;9.952;2023-01-30T04:35:52;99988.38;;;2.89;100.00
13705;BME280;6924;52.122;9.952;2023-01-30T04:38:19;99983.06;;;2.93;100.00
13705;BME280;6924;52.122;9.952;2023-01-30T04:40:49;99972.19;;;2.96;100.00
13705;BME280;6924;52.122;9.952;2023-01-30T04:43:16;99980.81;;;2.95;100.00
13705;BME280;6924;52.122;9.952;2023-01-30T04:45:44;99977.50;;;2.98;100.00
13705;BME280;6924;52.122;9.952;2023-01-30T04:48:11;99970.78;;;2.99;100.00
13705;BME280;6924;52.122;9.952;2023-01-30T04:50:38;99968.25;;;2.97;100.00
13705;BME280;6924;52.122;9.952;2023-01-30T04:53:05;99957.94;;;2.98;100.00
13705;BME280;6924;52.122;9.952;2023-01-30T04:55:31;99965.19;;;2.99;100.00
13705;BME280;6924;52.122;9.952;2023-01-30T04:57:57;99959.03;;;3.02;100.00
13705;BME280;6924;52.122;9.952;2023-01-30T05:00:24;99962.38;;;3.04;100.00
13705;BME280;6924;52.122;9.952;2023-01-30T05:02:52;99969.94;;;3.08;100.00
13705;BME280;6924;52.122;9.952;2023-01-30T05:05:20;99951.22;;;3.14;100.00
13705;BME280;6924;52.122;9.952;2023-01-30T05:07:46;99951.78;;;3.11;100.00
13705;BME280;6924;52.122;9.952;2023-01-30T05:10:13;99958.22;;;3.12;100.00
13705;BME280;6924;52.122;9.952;2023-01-30T05:12:40;99962.13;;;3.16;100.00
13705;BME280;6924;52.122;9.952;2023-01-30T05:15:07;99944.78;;;3.19;100.00
13705;BME280;6924;52.122;9.952;2023-01-30T05:17:33;99954.84;;;3.20;100.00
13705;BME280;6924;52.122;9.952;2023-01-30T05:20:02;99945.63;;;3.19;100.00
13705;BME280;6924;52.122;9.952;2023-01-30T05:22:29;99951.50;;;3.23;100.00
13705;BME280;6924;52.122;9.952;2023-01-30T05:24:55;99948.69;;;3.23;100.00
13705;BME280;6924;52.122;9.952;2023-01-30T05:27:21;99947.28;;;3.25;100.00
13705;BME280;6924;52.122;9.952;2023-01-30T05:29:48;99944.78;;;3.29;100.00
13705;BME280;6924;52.122;9.952;2023-01-30T05:32:15;99944.47;;;3.30;100.00
13705;BME280;6924;52.122;9.952;2023-01-30T05:34:42;99940.03;;;3.29;100.00
13705;BME280;6924;52.122;9.952;2023-01-30T05:37:11;99931.06;;;3.33;100.00
13705;BME280;6924;52.122;9.952;2023-01-30T05:39:37;99935.81;;;3.32;100.00
13705;BME280;6924;52.122;9.952;2023-01-30T05:42:04;99929.69;;;3.35;100.00
13705;BME280;6924;52.122;9.952;2023-01-30T05:44:30;99932.19;;;3.31;100.00
13705;BME280;6924;52.122;9.952;2023-01-30T05:46:57;99933.84;;;3.33;100.00
13705;BME280;6924;52.122;9.952;2023-01-30T05:49:23;99936.94;;;3.36;100.00
13705;BME280;6924;52.122;9.952;2023-01-30T05:51:49;99945.59;;;3.40;100.00
13705;BME280;6924;52.122;9.952;2023-01-30T05:54:17;99941.13;;;3.39;100.00
13705;BME280;6924;52.122;9.952;2023-01-30T05:56:47;99932.72;;;3.39;100.00
13705;BME280;6924;52.122;9.952;2023-01-30T05:59:13;99937.78;;;3.42;100.00
13705;BME280;6924;52.122;9.952;2023-01-30T06:01:40;99950.06;;;3.41;100.00
13705;BME280;6924;52.122;9.952;2023-01-30T06:04:07;99940.81;;;3.45;100.00
13705;BME280;6924;52.122;9.952;2023-01-30T06:06:33;99946.69;;;3.44;100.00
13705;BME280;6924;52.122;9.952;2023-01-30T06:08:59;99940.25;;;3.43;100.00
13705;BME280;6924;52.122;9.952;2023-01-30T06:11:27;99941.97;;;3.44;100.00
13705;BME280;6924;52.122;9.952;2023-01-30T06:13:53;99948.38;;;3.45;100.00
13705;BME280;6924;52.122;9.952;2023-01-30T06:16:20;99941.94;;;3.49;100.00
13705;BME280;6924;52.122;9.952;2023-01-30T06:18:46;99937.19;;;3.50;100.00
13705;BME280;6924;52.122;9.952;2023-01-30T06:21:13;99935.22;;;3.50;100.00
13705;BME280;6924;52.122;9.952;2023-01-30T06:23:40;99928.25;;;3.53;100.00
13705;BME280;6924;52.122;9.952;2023-01-30T06:26:08;99929.91;;;3.54;100.00
13705;BME280;6924;52.122;9.952;2023-01-30T06:28:36;99930.72;;;3.55;100.00
13705;BME280;6924;52.122;9.952;2023-01-30T06:31:04;99940.25;;;3.54;100.00
13705;BME280;6924;52.122;9.952;2023-01-30T06:33:31;99926.00;;;3.55;100.00
13705;BME280;6924;52.122;9.952;2023-01-30T06:35:57;99936.31;;;3.55;100.00
13705;BME280;6924;52.122;9.952;2023-01-30T06:38:24;99941.09;;;3.54;100.00
13705;BME280;6924;52.122;9.952;2023-01-30T06:40:50;99933.53;;;3.55;100.00
13705;BME280;6924;52.122;9.952;2023-01-30T06:43:17;99936.63;;;3.53;100.00
13705;BME280;6924;52.122;9.952;2023-01-30T06:45:45;99950.59;;;3.53;100.00
13705;BME280;6924;52.122;9.952;2023-01-30T06:48:11;99936.91;;;3.51;100.00
13705;BME280;6924;52.122;9.952;2023-01-30T06:50:38;99959.84;;;3.48;100.00
13705;BME280;6924;52.122;9.952;2023-01-30T06:53:06;99965.97;;;3.50;100.00
13705;BME280;6924;52.122;9.952;2023-01-30T06:55:33;99961.78;;;3.53;100.00
13705;BME280;6924;52.122;9.952;2023-01-30T06:58:01;99957.88;;;3.54;100.00
13705;BME280;6924;52.122;9.952;2023-01-30T07:00:29;99951.72;;;3.52;100.00
13705;BME280;6924;52.122;9.952;2023-01-30T07:02:57;99960.66;;;3.54;100.00
13705;BME280;6924;52.122;9.952;2023-01-30T07:05:24;99968.50;;;3.52;100.00
13705;BME280;6924;52.122;9.952;2023-01-30T07:07:50;99960.69;;;3.49;100.00
13705;BME280;6924;52.122;9.952;2023-01-30T07:10:17;99959.28;;;3.51;100.00
13705;BME280;6924;52.122;9.952;2023-01-30T07:12:44;99957.31;;;3.52;100.00
13705;BME280;6924;52.122;9.952;2023-01-30T07:15:11;99949.44;;;3.59;100.00
13705;BME280;6924;52.122;9.952;2023-01-30T07:17:38;99953.97;;;3.55;100.00
13705;BME280;6924;52.122;9.952;2023-01-30T07:20:08;99964.88;;;3.51;100.00
13705;BME280;6924;52.122;9.952;2023-01-30T07:22:35;99961.78;;;3.53;100.00
13705;BME280;6924;52.122;9.952;2023-01-30T07:25:01;99956.19;;;3.53;100.00
13705;BME280;6924;52.122;9.952;2023-01-30T07:27:28;99949.22;;;3.45;100.00
13705;BME280;6924;52.122;9.952;2023-01-30T07:29:54;99963.16;;;3.50;100.00
13705;BME280;6924;52.122;9.952;2023-01-30T07:32:20;99972.41;;;3.51;100.00
13705;BME280;6924;52.122;9.952;2023-01-30T07:34:47;99965.72;;;3.47;100.00
13705;BME280;6924;52.122;9.952;2023-01-30T07:37:15;99963.16;;;3.50;100.00
13705;BME280;6924;52.122;9.952;2023-01-30T07:39:41;99978.88;;;3.46;100.00
13705;BME280;6924;52.122;9.952;2023-01-30T07:42:08;99959.28;;;3.46;100.00
13705;BME280;6924;52.122;9.952;2023-01-30T07:44:34;99959.56;;;3.45;100.00
13705;BME280;6924;52.122;9.952;2023-01-30T07:47:00;99965.16;;;3.45;100.00
13705;BME280;6924;52.122;9.952;2023-01-30T07:49:27;99967.13;;;3.44;100.00
13705;BME280;6924;52.122;9.952;2023-01-30T07:51:53;99964.31;;;3.49;100.00
13705;BME280;6924;52.122;9.952;2023-01-30T07:54:21;99966.53;;;3.52;100.00
13705;BME280;6924;52.122;9.952;2023-01-30T07:56:48;99975.78;;;3.53;100.00
13705;BME280;6924;52.122;9.952;2023-01-30T07:59:14;99968.75;;;3.50;100.00
13705;BME280;6924;52.122;9.952;2023-01-30T08:01:40;99978.28;;;3.49;100.00
13705;BME280;6924;52.122;9.952;2023-01-30T08:04:07;99958.72;;;3.44;100.00
13705;BME280;6924;52.122;9.952;2023-01-30T08:06:33;99963.75;;;3.47;100.00
13705;BME280;6924;52.122;9.952;2023-01-30T08:09:03;99957.03;;;3.54;100.00
13705;BME280;6924;52.122;9.952;2023-01-30T08:11:30;99966.25;;;3.54;100.00
13705;BME280;6924;52.122;9.952;2023-01-30T08:13:57;99953.97;;;3.55;100.00
13705;BME280;6924;52.122;9.952;2023-01-30T08:16:23;99944.44;;;3.56;100.00
13705;BME280;6924;52.122;9.952;2023-01-30T08:18:50;99951.16;;;3.55;100.00
13705;BME280;6924;52.122;9.952;2023-01-30T08:21:16;99957.88;;;3.54;100.00
13705;BME280;6924;52.122;9.952;2023-01-30T08:23:42;99964.00;;;3.61;100.00
13705;BME280;6924;52.122;9.952;2023-01-30T08:26:08;99956.47;;;3.62;100.00
13705;BME280;6924;52.122;9.952;2023-01-30T08:28:36;99963.13;;;3.66;100.00
13705;BME280;6924;52.122;9.952;2023-01-30T08:31:08;99957.25;;;3.67;100.00
13705;BME280;6924;52.122;9.952;2023-01-30T08:33:34;99953.38;;;3.68;100.00
13705;BME280;6924;52.122;9.952;2023-01-30T08:36:01;99955.84;;;3.70;100.00
13705;BME280;6924;52.122;9.952;2023-01-30T08:38:27;99958.38;;;3.71;100.00
13705;BME280;6924;52.122;9.952;2023-01-30T08:40:53;99971.78;;;3.75;100.00
13705;BME280;6924;52.122;9.952;2023-01-30T08:43:21;99969.81;;;3.90;100.00
13705;BME280;6924;52.122;9.952;2023-01-30T08:45:51;99972.28;;;3.97;100.00
13705;BME280;6924;52.122;9.952;2023-01-30T08:48:18;99981.75;;;4.11;100.00
13705;BME280;6924;52.122;9.952;2023-01-30T08:50:44;99981.97;;;4.20;100.00
13705;BME280;6924;52.122;9.952;2023-01-30T08:53:10;99976.38;;;4.20;100.00
13705;BME280;6924;52.122;9.952;2023-01-30T08:55:37;99981.69;;;4.22;100.00
13705;BME280;6924;52.122;9.952;2023-01-30T08:58:03;99988.41;;;4.21;100.00
13705;BME280;6924;52.122;9.952;2023-01-30T09:00:30;99992.06;;;4.21;100.00
13705;BME280;6924;52.122;9.952;2023-01-30T09:02:57;99988.13;;;4.22;100.00
13705;BME280;6924;52.122;9.952;2023-01-30T09:05:24;99997.34;;;4.28;99.68
13705;BME280;6924;52.122;9.952;2023-01-30T09:07:51;99989.78;;;4.28;99.96
13705;BME280;6924;52.122;9.952;2023-01-30T09:10:17;100002.66;;;4.29;97.68
13705;BME280;6924;52.122;9.952;2023-01-30T09:12:44;99999.03;;;4.29;100.00
13705;BME280;6924;52.122;9.952;2023-01-30T09:15:11;100003.50;;;4.25;99.84
13705;BME280;6924;52.122;9.952;2023-01-30T09:17:37;100009.66;;;4.27;100.00
13705;BME280;6924;52.122;9.952;2023-01-30T09:20:06;100013.81;;;4.40;95.11
13705;BME280;6924;52.122;9.952;2023-01-30T09:22:33;99999.53;;;4.41;96.50
13705;BME280;6924;52.122;9.952;2023-01-30T09:25:00;99998.66;;;4.41;99.88
13705;BME280;6924;52.122;9.952;2023-01-30T09:27:26;100001.78;;;4.39;97.74
13705;BME280;6924;52.122;9.952;2023-01-30T09:29:53;99995.63;;;4.37;99.05
13705;BME280;6924;52.122;9.952;2023-01-30T09:32:19;99997.00;;;4.40;98.15
13705;BME280;6924;52.122;9.952;2023-01-30T09:34:46;100002.06;;;4.38;99.95
13705;BME280;6924;52.122;9.952;2023-01-30T09:37:14;99996.75;;;4.36;100.00
13705;BME280;6924;52.122;9.952;2023-01-30T09:39:40;100004.91;;;4.32;99.01
13705;BME280;6924;52.122;9.952;2023-01-30T09:42:23;100016.09;;;4.32;98.10
13705;BME280;6924;52.122;9.952;2023-01-30T09:45:13;100022.78;;;4.37;96.39
13705;BME280;6924;52.122;9.952;2023-01-30T09:47:45;100009.88;;;4.41;92.00
13705;BME280;6924;52.122;9.952;2023-01-30T09:50:22;100016.53;;;4.55;90.26
13705;BME280;6924;52.122;9.952;2023-01-30T09:52:58;100013.47;;;4.57;90.42
13705;BME280;6924;52.122;9.952;2023-01-30T09:55:29;100016.81;;;4.53;90.91
13705;BME280;6924;52.122;9.952;2023-01-30T09:57:58;100011.47;;;4.57;88.81
13705;BME280;6924;52.122;9.952;2023-01-30T10:00:29;100010.63;;;4.62;86.37
13705;BME280;6924;52.122;9.952;2023-01-30T10:03:02;100001.63;;;4.65;87.61
13705;BME280;6924;52.122;9.952;2023-01-30T10:05:36;100007.75;;;4.72;86.96
13705;BME280;6924;52.122;9.952;2023-01-30T10:08:20;99999.59;;;4.75;84.20
13705;BME280;6924;52.122;9.952;2023-01-30T10:10:56;99995.97;;;4.75;85.85
13705;BME280;6924;52.122;9.952;2023-01-30T10:13:37;99991.78;;;4.72;88.90
13705;BME280;6924;52.122;9.952;2023-01-30T10:16:12;99997.94;;;4.74;87.11
13705;BME280;6924;52.122;9.952;2023-01-30T10:18:48;99995.41;;;4.73;87.15
13705;BME280;6924;52.122;9.952;2023-01-30T10:21:26;99992.88;;;4.76;90.14
13705;BME280;6924;52.122;9.952;2023-01-30T10:26:45;99989.31;;;4.66;90.12
13705;BME280;6924;52.122;9.952;2023-01-30T10:29:17;99993.22;;;4.70;88.67
13705;BME280;6924;52.122;9.952;2023-01-30T10:31:47;100002.41;;;4.75;89.43
13705;BME280;6924;52.122;9.952;2023-01-30T10:34:18;99986.69;;;4.80;88.48
13705;BME280;6924;52.122;9.952;2023-01-30T10:36:51;99992.22;;;4.90;88.57
13705;BME280;6924;52.122;9.952;2023-01-30T10:39:25;99998.63;;;4.95;88.75
13705;BME280;6924;52.122;9.952;2023-01-30T10:41:57;99990.53;;;4.94;86.99
13705;BME280;6924;52.122;9.952;2023-01-30T10:44:24;99988.28;;;4.91;89.37
13705;BME280;6924;52.122;9.952;2023-01-30T10:47:07;99996.97;;;4.89;85.60
13705;BME280;6924;52.122;9.952;2023-01-30T10:49:39;99981.03;;;4.90;88.46
13705;BME280;6924;52.122;9.952;2023-01-30T10:52:19;99982.94;;;4.94;85.09
13705;BME280;6924;52.122;9.952;2023-01-30T10:54:56;99964.41;;;4.99;83.99
13705;BME280;6924;52.122;9.952;2023-01-30T10:57:35;99966.25;;;5.13;84.31
13705;BME280;6924;52.122;9.952;2023-01-30T11:00:09;99971.50;;;5.20;87.46
13705;BME280;6924;52.122;9.952;2023-01-30T11:02:43;99963.66;;;5.22;89.12
13705;BME280;6924;52.122;9.952;2023-01-30T11:05:14;99964.25;;;5.19;88.38
13705;BME280;6924;52.122;9.952;2023-01-30T11:07:42;99983.22;;;4.93;94.60
13705;BME280;6924;52.122;9.952;2023-01-30T11:10:14;99973.06;;;4.63;91.61
13705;BME280;6924;52.122;9.952;2023-01-30T11:12:41;99961.34;;;4.55;93.05
13705;BME280;6924;52.122;9.952;2023-01-30T11:15:09;99964.41;;;4.59;95.88
13705;BME280;6924;52.122;9.952;2023-01-30T11:17:37;99965.44;;;4.73;97.15
13705;BME280;6924;52.122;9.952;2023-01-30T11:20:11;99968.44;;;4.87;97.90
13705;BME280;6924;52.122;9.952;2023-01-30T11:22:45;99967.28;;;4.88;91.28
13705;BME280;6924;52.122;9.952;2023-01-30T11:25:16;99974.28;;;4.91;92.34
13705;BME280;6924;52.122;9.952;2023-01-30T11:27:51;99976.53;;;4.89;93.80
13705;BME280;6924;52.122;9.952;2023-01-30T11:30:19;99978.22;;;4.85;95.76
13705;BME280;6924;52.122;9.952;2023-01-30T11:32:48;99968.50;;;4.77;94.26
13705;BME280;6924;52.122;9.952;2023-01-30T11:35:23;99964.06;;;4.71;92.61
13705;BME280;6924;52.122;9.952;2023-01-30T11:37:50;99966.91;;;4.66;93.50
13705;BME280;6924;52.122;9.952;2023-01-30T11:40:23;99950.59;;;4.73;95.68
13705;BME280;6924;52.122;9.952;2023-01-30T11:42:51;99944.66;;;4.80;93.39
13705;BME280;6924;52.122;9.952;2023-01-30T11:45:18;99951.69;;;4.77;90.83
13705;BME280;6924;52.122;9.952;2023-01-30T11:47:52;99957.56;;;4.81;93.27
13705;BME280;6924;52.122;9.952;2023-01-30T11:50:29;99957.25;;;4.82;92.60
13705;BME280;6924;52.122;9.952;2023-01-30T11:53:01;99943.72;;;4.89;94.76
13705;BME280;6924;52.122;9.952;2023-01-30T11:55:32;99937.59;;;4.87;92.69
13705;BME280;6924;52.122;9.952;2023-01-30T11:58:02;99926.91;;;4.89;92.12
13705;BME280;6924;52.122;9.952;2023-01-30T12:00:37;99926.63;;;4.91;92.02
13705;BME280;6924;52.122;9.952;2023-01-30T12:03:08;99925.72;;;5.01;91.62
13705;BME280;6924;52.122;9.952;2023-01-30T12:05:37;99909.44;;;5.03;90.16
13705;BME280;6924;52.122;9.952;2023-01-30T12:08:23;99904.91;;;5.07;89.83
13705;BME280;6924;52.122;9.952;2023-01-30T12:10:53;99904.22;;;5.20;91.83
13705;BME280;6924;52.122;9.952;2023-01-30T12:13:24;99894.94;;;5.25;91.68
13705;BME280;6924;52.122;9.952;2023-01-30T12:18:43;99905.50;;;5.33;91.96
13705;BME280;6924;52.122;9.952;2023-01-30T12:21:16;99902.88;;;5.42;91.36
13705;BME280;6924;52.122;9.952;2023-01-30T12:23:47;99886.66;;;5.38;89.40
13705;BME280;6924;52.122;9.952;2023-01-30T12:26:20;99894.25;;;5.38;90.48
13705;BME280;6924;52.122;9.952;2023-01-30T12:28:54;99887.59;;;5.29;91.12
13705;BME280;6924;52.122;9.952;2023-01-30T12:31:26;99879.53;;;5.22;92.27
13705;BME280;6924;52.122;9.952;2023-01-30T12:33:55;99884.16;;;5.08;94.01
13705;BME280;6924;52.122;9.952;2023-01-30T12:36:31;99885.34;;;5.02;92.54
13705;BME280;6924;52.122;9.952;2023-01-30T12:39:10;99886.78;;;4.99;91.10
13705;BME280;6924;52.122;9.952;2023-01-30T12:41:52;99894.63;;;4.97;92.27
13705;BME280;6924;52.122;9.952;2023-01-30T12:44:36;99923.25;;;4.94;95.76
13705;BME280;6924;52.122;9.952;2023-01-30T12:47:27;99934.31;;;4.75;96.91
13705;BME280;6924;52.122;9.952;2023-01-30T12:50:11;99943.66;;;4.60;98.71
13705;BME280;6924;52.122;9.952;2023-01-30T12:52:53;99960.00;;;4.48;100.00
13705;BME280;6924;52.122;9.952;2023-01-30T12:55:34;99957.53;;;4.36;100.00
13705;BME280;6924;52.122;9.952;2023-01-30T12:58:10;99945.88;;;4.19;100.00
13705;BME280;6924;52.122;9.952;2023-01-30T13:00:57;99956.03;;;4.04;100.00
13705;BME280;6924;52.122;9.952;2023-01-30T13:03:34;99946.00;;;3.88;100.00
13705;BME280;6924;52.122;9.952;2023-01-30T13:06:13;99951.06;;;3.81;100.00
13705;BME280;6924;52.122;9.952;2023-01-30T13:08:56;99944.38;;;3.71;100.00
13705;BME280;6924;52.122;9.952;2023-01-30T13:11:36;99959.22;;;3.72;100.00
13705;BME280;6924;52.122;9.952;2023-01-30T13:14:11;99960.91;;;3.73;100.00
13705;BME280;6924;52.122;9.952;2023-01-30T13:16:50;99969.59;;;3.66;100.00
13705;BME280;6924;52.122;9.952;2023-01-30T13:19:25;99981.59;;;3.67;100.00
13705;BME280;6924;52.122;9.952;2023-01-30T13:22:01;99992.81;;;3.62;100.00
13705;BME280;6924;52.122;9.952;2023-01-30T13:24:40;99990.84;;;3.57;100.00
13705;BME280;6924;52.122;9.952;2023-01-30T13:27:14;99992.25;;;3.55;100.00
13705;BME280;6924;52.122;9.952;2023-01-30T13:29:44;99998.97;;;3.59;100.00
13705;BME280;6924;52.122;9.952;2023-01-30T13:32:14;100004.00;;;3.57;100.00